sensor_id;sensor_type;location;lat;lon;timestamp;P1;durP1;ratioP1;P2;durP2;ratioP2
8683;SDS011;4379;59.744;18.206;2022-10-31T00:01:17;1.80;;;1.70;;
8683;SDS011;4379;59.744;18.206;2022-10-31T00:03:53;2.80;;;2.00;;
8683;SDS011;4379;59.744;18.206;2022-10-31T00:06:21;2.03;;;1.93;;
8683;SDS011;4379;59.744;18.206;2022-10-31T00:08:52;3.47;;;1.60;;
8683;SDS011;4379;59.744;18.206;2022-10-31T00:11:21;3.43;;;2.00;;
8683;SDS011;4379;59.744;18.206;2022-10-31T00:13:48;1.80;;;1.70;;
8683;SDS011;4379;59.744;18.206;2022-10-31T00:16:17;2.27;;;2.07;;
8683;SDS011;4379;59.744;18.206;2022-10-31T00:18:49;3.33;;;2.33;;
8683;SDS011;4379;59.744;18.206;2022-10-31T00:21:21;2.17;;;2.00;;
8683;SDS011;4379;59.744;18.206;2022-10-31T00:23:49;2.00;;;1.90;;
8683;SDS011;4379;59.744;18.206;2022-10-31T00:26:16;2.10;;;1.90;;
8683;SDS011;4379;59.744;18.206;2022-10-31T00:28:44;3.57;;;1.90;;
8683;SDS011;4379;59.744;18.206;2022-10-31T00:31:12;2.03;;;1.87;;
8683;SDS011;4379;59.744;18.206;2022-10-31T00:33:40;2.83;;;2.00;;
8683;SDS011;4379;59.744;18.206;2022-10-31T00:36:10;3.10;;;2.17;;
8683;SDS011;4379;59.744;18.206;2022-10-31T00:38:39;2.33;;;2.00;;
8683;SDS011;4379;59.744;18.206;2022-10-31T00:41:07;2.10;;;1.90;;
8683;SDS011;4379;59.744;18.206;2022-10-31T00:43:35;2.30;;;2.10;;
8683;SDS011;4379;59.744;18.206;2022-10-31T00:46:02;2.43;;;1.93;;
8683;SDS011;4379;59.744;18.206;2022-10-31T00:48:29;2.13;;;1.93;;
8683;SDS011;4379;59.744;18.206;2022-10-31T00:50:57;3.13;;;2.10;;
8683;SDS011;4379;59.744;18.206;2022-10-31T00:53:24;3.20;;;2.23;;
8683;SDS011;4379;59.744;18.206;2022-10-31T00:55:52;2.67;;;1.90;;
8683;SDS011;4379;59.744;18.206;2022-10-31T00:58:19;2.00;;;1.90;;
8683;SDS011;4379;59.744;18.206;2022-10-31T01:00:49;2.50;;;2.30;;
8683;SDS011;4379;59.744;18.206;2022-10-31T01:03:23;2.40;;;2.20;;
8683;SDS011;4379;59.744;18.206;2022-10-31T01:06:00;2.67;;;2.07;;
8683;SDS011;4379;59.744;18.206;2022-10-31T01:08:29;1.93;;;1.80;;
8683;SDS011;4379;59.744;18.206;2022-10-31T01:11:07;2.13;;;2.03;;
8683;SDS011;4379;59.744;18.206;2022-10-31T01:13:35;4.20;;;2.40;;
8683;SDS011;4379;59.744;18.206;2022-10-31T01:16:03;2.00;;;1.90;;
8683;SDS011;4379;59.744;18.206;2022-10-31T01:18:32;3.67;;;2.53;;
8683;SDS011;4379;59.744;18.206;2022-10-31T01:21:02;2.90;;;2.10;;
8683;SDS011;4379;59.744;18.206;2022-10-31T01:23:34;2.17;;;1.77;;
8683;SDS011;4379;59.744;18.206;2022-10-31T01:28:37;3.10;;;2.80;;
8683;SDS011;4379;59.744;18.206;2022-10-31T01:31:07;5.97;;;3.50;;
8683;SDS011;4379;59.744;18.206;2022-10-31T01:33:35;3.30;;;3.10;;
8683;SDS011;4379;59.744;18.206;2022-10-31T01:38:45;4.83;;;2.93;;
8683;SDS011;4379;59.744;18.206;2022-10-31T01:41:15;7.77;;;3.67;;
8683;SDS011;4379;59.744;18.206;2022-10-31T01:43:45;4.37;;;3.50;;
8683;SDS011;4379;59.744;18.206;2022-10-31T01:46:16;4.90;;;3.33;;
8683;SDS011;4379;59.744;18.206;2022-10-31T01:48:48;3.50;;;2.83;;
8683;SDS011;4379;59.744;18.206;2022-10-31T01:51:18;3.60;;;3.27;;
8683;SDS011;4379;59.744;18.206;2022-10-31T01:53:47;3.40;;;3.10;;
8683;SDS011;4379;59.744;18.206;2022-10-31T01:56:16;3.53;;;2.83;;
8683;SDS011;4379;59.744;18.206;2022-10-31T01:58:45;4.03;;;2.50;;
8683;SDS011;4379;59.744;18.206;2022-10-31T02:01:14;2.90;;;2.67;;
8683;SDS011;4379;59.744;18.206;2022-10-31T02:03:42;3.30;;;2.37;;
8683;SDS011;4379;59.744;18.206;2022-10-31T02:06:13;3.10;;;2.80;;
8683;SDS011;4379;59.744;18.206;2022-10-31T02:08:52;3.47;;;3.00;;
8683;SDS011;4379;59.744;18.206;2022-10-31T02:11:21;2.90;;;2.70;;
8683;SDS011;4379;59.744;18.206;2022-10-31T02:13:48;3.83;;;3.53;;
8683;SDS011;4379;59.744;18.206;2022-10-31T02:16:17;2.73;;;2.43;;
8683;SDS011;4379;59.744;18.206;2022-10-31T02:18:44;5.33;;;3.13;;
8683;SDS011;4379;59.744;18.206;2022-10-31T02:26:51;3.53;;;2.60;;
8683;SDS011;4379;59.744;18.206;2022-10-31T02:36:09;2.70;;;2.50;;
8683;SDS011;4379;59.744;18.206;2022-10-31T02:46:39;5.17;;;3.13;;
8683;SDS011;4379;59.744;18.206;2022-10-31T02:52:02;5.30;;;3.60;;
8683;SDS011;4379;59.744;18.206;2022-10-31T02:54:56;4.43;;;2.90;;
8683;SDS011;4379;59.744;18.206;2022-10-31T02:57:28;3.43;;;2.90;;
8683;SDS011;4379;59.744;18.206;2022-10-31T03:00:00;4.50;;;2.90;;
8683;SDS011;4379;59.744;18.206;2022-10-31T03:05:23;5.43;;;2.97;;
8683;SDS011;4379;59.744;18.206;2022-10-31T03:08:11;4.23;;;3.53;;
8683;SDS011;4379;59.744;18.206;2022-10-31T03:10:54;4.10;;;3.70;;
8683;SDS011;4379;59.744;18.206;2022-10-31T03:13:38;5.53;;;3.57;;
8683;SDS011;4379;59.744;18.206;2022-10-31T03:19:26;3.60;;;3.30;;
8683;SDS011;4379;59.744;18.206;2022-10-31T03:22:18;3.00;;;2.80;;
8683;SDS011;4379;59.744;18.206;2022-10-31T03:24:51;3.27;;;2.90;;
8683;SDS011;4379;59.744;18.206;2022-10-31T03:27:24;3.97;;;3.00;;
8683;SDS011;4379;59.744;18.206;2022-10-31T03:29:54;4.30;;;3.00;;
8683;SDS011;4379;59.744;18.206;2022-10-31T03:32:46;3.57;;;3.23;;
8683;SDS011;4379;59.744;18.206;2022-10-31T03:35:14;2.73;;;2.63;;
8683;SDS011;4379;59.744;18.206;2022-10-31T03:37:44;3.23;;;2.93;;
8683;SDS011;4379;59.744;18.206;2022-10-31T03:40:12;3.33;;;3.13;;
8683;SDS011;4379;59.744;18.206;2022-10-31T03:42:43;3.03;;;2.83;;
8683;SDS011;4379;59.744;18.206;2022-10-31T03:45:19;2.87;;;2.67;;
8683;SDS011;4379;59.744;18.206;2022-10-31T03:47:53;2.87;;;2.63;;
8683;SDS011;4379;59.744;18.206;2022-10-31T03:50:22;3.03;;;2.83;;
8683;SDS011;4379;59.744;18.206;2022-10-31T03:55:30;2.83;;;2.73;;
8683;SDS011;4379;59.744;18.206;2022-10-31T03:58:06;3.03;;;2.73;;
8683;SDS011;4379;59.744;18.206;2022-10-31T04:00:40;3.20;;;2.90;;
8683;SDS011;4379;59.744;18.206;2022-10-31T04:03:12;3.17;;;2.97;;
8683;SDS011;4379;59.744;18.206;2022-10-31T04:05:47;3.80;;;3.50;;
8683;SDS011;4379;59.744;18.206;2022-10-31T04:08:19;3.63;;;3.33;;
8683;SDS011;4379;59.744;18.206;2022-10-31T04:10:50;3.43;;;3.03;;
8683;SDS011;4379;59.744;18.206;2022-10-31T04:13:21;3.23;;;3.00;;
8683;SDS011;4379;59.744;18.206;2022-10-31T04:15:52;3.73;;;3.43;;
8683;SDS011;4379;59.744;18.206;2022-10-31T04:18:22;3.60;;;3.30;;
8683;SDS011;4379;59.744;18.206;2022-10-31T04:20:58;2.80;;;2.70;;
8683;SDS011;4379;59.744;18.206;2022-10-31T04:23:27;3.47;;;3.17;;
8683;SDS011;4379;59.744;18.206;2022-10-31T04:25:55;3.03;;;2.83;;
8683;SDS011;4379;59.744;18.206;2022-10-31T04:28:23;3.30;;;3.10;;
8683;SDS011;4379;59.744;18.206;2022-10-31T04:30:50;3.63;;;3.33;;
8683;SDS011;4379;59.744;18.206;2022-10-31T04:33:18;3.90;;;3.50;;
8683;SDS011;4379;59.744;18.206;2022-10-31T04:35:47;4.30;;;3.47;;
8683;SDS011;4379;59.744;18.206;2022-10-31T04:38:14;4.33;;;3.67;;
8683;SDS011;4379;59.744;18.206;2022-10-31T04:40:42;4.73;;;4.00;;
8683;SDS011;4379;59.744;18.206;2022-10-31T04:43:09;3.70;;;3.40;;
8683;SDS011;4379;59.744;18.206;2022-10-31T04:45:36;3.70;;;3.40;;
8683;SDS011;4379;59.744;18.206;2022-10-31T04:48:04;3.87;;;3.57;;
8683;SDS011;4379;59.744;18.206;2022-10-31T04:50:31;4.80;;;4.30;;
8683;SDS011;4379;59.744;18.206;2022-10-31T04:52:58;4.40;;;4.00;;
8683;SDS011;4379;59.744;18.206;2022-10-31T04:55:25;4.63;;;3.77;;
8683;SDS011;4379;59.744;18.206;2022-10-31T04:57:53;3.90;;;3.53;;
8683;SDS011;4379;59.744;18.206;2022-10-31T05:00:21;5.20;;;3.90;;
8683;SDS011;4379;59.744;18.206;2022-10-31T05:02:53;3.90;;;3.53;;
8683;SDS011;4379;59.744;18.206;2022-10-31T05:05:26;5.23;;;3.67;;
8683;SDS011;4379;59.744;18.206;2022-10-31T05:07:56;3.40;;;3.20;;
8683;SDS011;4379;59.744;18.206;2022-10-31T05:10:24;4.00;;;3.70;;
8683;SDS011;4379;59.744;18.206;2022-10-31T05:12:54;3.40;;;3.10;;
8683;SDS011;4379;59.744;18.206;2022-10-31T05:15:26;5.23;;;3.10;;
8683;SDS011;4379;59.744;18.206;2022-10-31T05:17:54;4.23;;;3.70;;
8683;SDS011;4379;59.744;18.206;2022-10-31T05:20:26;3.83;;;3.63;;
8683;SDS011;4379;59.744;18.206;2022-10-31T05:22:55;4.10;;;3.57;;
8683;SDS011;4379;59.744;18.206;2022-10-31T05:25:24;3.77;;;3.43;;
8683;SDS011;4379;59.744;18.206;2022-10-31T05:27:54;4.20;;;3.80;;
8683;SDS011;4379;59.744;18.206;2022-10-31T05:30:24;5.43;;;3.57;;
8683;SDS011;4379;59.744;18.206;2022-10-31T05:32:56;7.83;;;3.73;;
8683;SDS011;4379;59.744;18.206;2022-10-31T05:35:25;6.27;;;3.73;;
8683;SDS011;4379;59.744;18.206;2022-10-31T05:37:54;4.43;;;4.13;;
8683;SDS011;4379;59.744;18.206;2022-10-31T05:40:22;3.90;;;3.60;;
8683;SDS011;4379;59.744;18.206;2022-10-31T05:42:50;4.93;;;3.70;;
8683;SDS011;4379;59.744;18.206;2022-10-31T05:45:19;4.30;;;3.50;;
8683;SDS011;4379;59.744;18.206;2022-10-31T05:47:54;5.27;;;3.70;;
8683;SDS011;4379;59.744;18.206;2022-10-31T05:50:27;5.27;;;3.90;;
8683;SDS011;4379;59.744;18.206;2022-10-31T05:52:59;4.87;;;4.37;;
8683;SDS011;4379;59.744;18.206;2022-10-31T05:55:32;4.53;;;3.87;;
8683;SDS011;4379;59.744;18.206;2022-10-31T05:57:59;6.33;;;4.13;;
8683;SDS011;4379;59.744;18.206;2022-10-31T06:00:27;5.33;;;4.13;;
8683;SDS011;4379;59.744;18.206;2022-10-31T06:03:05;4.27;;;3.93;;
8683;SDS011;4379;59.744;18.206;2022-10-31T06:05:35;4.20;;;3.90;;
8683;SDS011;4379;59.744;18.206;2022-10-31T06:08:02;6.20;;;4.30;;
8683;SDS011;4379;59.744;18.206;2022-10-31T06:10:30;5.10;;;4.17;;
8683;SDS011;4379;59.744;18.206;2022-10-31T06:12:57;7.27;;;4.87;;
8683;SDS011;4379;59.744;18.206;2022-10-31T06:15:24;8.90;;;5.07;;
8683;SDS011;4379;59.744;18.206;2022-10-31T06:17:58;5.57;;;4.90;;
8683;SDS011;4379;59.744;18.206;2022-10-31T06:20:30;10.33;;;5.40;;
8683;SDS011;4379;59.744;18.206;2022-10-31T06:22:58;10.13;;;5.93;;
8683;SDS011;4379;59.744;18.206;2022-10-31T06:25:26;7.00;;;5.50;;
8683;SDS011;4379;59.744;18.206;2022-10-31T06:27:53;5.90;;;5.30;;
8683;SDS011;4379;59.744;18.206;2022-10-31T06:30:21;8.10;;;6.20;;
8683;SDS011;4379;59.744;18.206;2022-10-31T06:32:48;11.97;;;6.33;;
8683;SDS011;4379;59.744;18.206;2022-10-31T06:35:16;8.00;;;5.87;;
8683;SDS011;4379;59.744;18.206;2022-10-31T06:37:50;5.60;;;5.07;;
8683;SDS011;4379;59.744;18.206;2022-10-31T06:40:18;9.03;;;6.40;;
8683;SDS011;4379;59.744;18.206;2022-10-31T06:42:45;5.90;;;5.50;;
8683;SDS011;4379;59.744;18.206;2022-10-31T06:45:12;19.57;;;6.60;;
8683;SDS011;4379;59.744;18.206;2022-10-31T06:47:40;5.57;;;5.07;;
8683;SDS011;4379;59.744;18.206;2022-10-31T06:50:27;4.90;;;4.47;;
8683;SDS011;4379;59.744;18.206;2022-10-31T06:52:57;6.57;;;5.60;;
8683;SDS011;4379;59.744;18.206;2022-10-31T06:55:25;5.63;;;5.07;;
8683;SDS011;4379;59.744;18.206;2022-10-31T06:57:54;5.60;;;5.10;;
8683;SDS011;4379;59.744;18.206;2022-10-31T07:00:28;8.83;;;5.30;;
8683;SDS011;4379;59.744;18.206;2022-10-31T07:02:57;5.87;;;5.27;;
8683;SDS011;4379;59.744;18.206;2022-10-31T07:05:30;6.03;;;4.93;;
8683;SDS011;4379;59.744;18.206;2022-10-31T07:07:58;5.47;;;4.83;;
8683;SDS011;4379;59.744;18.206;2022-10-31T07:10:29;6.00;;;5.50;;
8683;SDS011;4379;59.744;18.206;2022-10-31T07:13:05;5.10;;;4.80;;
8683;SDS011;4379;59.744;18.206;2022-10-31T07:15:37;5.50;;;5.00;;
8683;SDS011;4379;59.744;18.206;2022-10-31T07:18:07;4.83;;;4.43;;
8683;SDS011;4379;59.744;18.206;2022-10-31T07:20:35;5.07;;;4.60;;
8683;SDS011;4379;59.744;18.206;2022-10-31T07:23:03;6.00;;;5.20;;
8683;SDS011;4379;59.744;18.206;2022-10-31T07:25:31;5.33;;;4.87;;
8683;SDS011;4379;59.744;18.206;2022-10-31T07:27:58;5.70;;;5.30;;
8683;SDS011;4379;59.744;18.206;2022-10-31T07:30:26;5.87;;;5.33;;
8683;SDS011;4379;59.744;18.206;2022-10-31T07:32:54;6.03;;;5.53;;
8683;SDS011;4379;59.744;18.206;2022-10-31T07:35:23;7.43;;;5.70;;
8683;SDS011;4379;59.744;18.206;2022-10-31T07:37:51;9.23;;;6.63;;
8683;SDS011;4379;59.744;18.206;2022-10-31T07:40:19;7.67;;;6.17;;
8683;SDS011;4379;59.744;18.206;2022-10-31T07:42:48;15.90;;;7.43;;
8683;SDS011;4379;59.744;18.206;2022-10-31T07:45:17;6.87;;;6.07;;
8683;SDS011;4379;59.744;18.206;2022-10-31T07:47:47;6.90;;;6.37;;
8683;SDS011;4379;59.744;18.206;2022-10-31T07:50:20;6.50;;;6.00;;
8683;SDS011;4379;59.744;18.206;2022-10-31T07:53:03;6.90;;;6.27;;
8683;SDS011;4379;59.744;18.206;2022-10-31T07:55:31;7.27;;;6.67;;
8683;SDS011;4379;59.744;18.206;2022-10-31T07:58:00;7.10;;;6.60;;
8683;SDS011;4379;59.744;18.206;2022-10-31T08:00:29;7.30;;;6.67;;
8683;SDS011;4379;59.744;18.206;2022-10-31T08:03:04;13.57;;;7.90;;
8683;SDS011;4379;59.744;18.206;2022-10-31T08:05:36;12.53;;;7.33;;
8683;SDS011;4379;59.744;18.206;2022-10-31T08:08:04;8.77;;;7.77;;
8683;SDS011;4379;59.744;18.206;2022-10-31T08:10:32;8.67;;;7.90;;
8683;SDS011;4379;59.744;18.206;2022-10-31T08:13:01;20.07;;;8.37;;
8683;SDS011;4379;59.744;18.206;2022-10-31T08:15:30;30.27;;;8.53;;
8683;SDS011;4379;59.744;18.206;2022-10-31T08:18:00;25.50;;;9.57;;
8683;SDS011;4379;59.744;18.206;2022-10-31T08:20:29;11.63;;;8.17;;
8683;SDS011;4379;59.744;18.206;2022-10-31T08:22:57;8.27;;;7.47;;
8683;SDS011;4379;59.744;18.206;2022-10-31T08:25:26;8.07;;;7.47;;
8683;SDS011;4379;59.744;18.206;2022-10-31T08:27:59;10.20;;;8.43;;
8683;SDS011;4379;59.744;18.206;2022-10-31T08:30:28;22.63;;;10.27;;
8683;SDS011;4379;59.744;18.206;2022-10-31T08:33:00;10.00;;;8.73;;
8683;SDS011;4379;59.744;18.206;2022-10-31T08:35:38;11.77;;;8.20;;
8683;SDS011;4379;59.744;18.206;2022-10-31T08:38:06;18.87;;;9.23;;
8683;SDS011;4379;59.744;18.206;2022-10-31T08:40:36;11.70;;;9.33;;
8683;SDS011;4379;59.744;18.206;2022-10-31T08:43:13;17.87;;;9.83;;
8683;SDS011;4379;59.744;18.206;2022-10-31T08:45:42;9.93;;;8.93;;
8683;SDS011;4379;59.744;18.206;2022-10-31T08:48:11;12.70;;;9.03;;
8683;SDS011;4379;59.744;18.206;2022-10-31T08:50:40;11.43;;;8.63;;
8683;SDS011;4379;59.744;18.206;2022-10-31T08:53:15;16.90;;;9.67;;
8683;SDS011;4379;59.744;18.206;2022-10-31T08:55:44;12.93;;;8.90;;
8683;SDS011;4379;59.744;18.206;2022-10-31T08:58:16;11.30;;;9.30;;
8683;SDS011;4379;59.744;18.206;2022-10-31T09:00:46;9.63;;;8.63;;
8683;SDS011;4379;59.744;18.206;2022-10-31T09:03:16;13.60;;;9.63;;
8683;SDS011;4379;59.744;18.206;2022-10-31T09:05:48;13.43;;;9.53;;
8683;SDS011;4379;59.744;18.206;2022-10-31T09:08:16;19.43;;;10.47;;
8683;SDS011;4379;59.744;18.206;2022-10-31T09:10:44;12.23;;;9.83;;
8683;SDS011;4379;59.744;18.206;2022-10-31T09:13:13;9.77;;;8.80;;
8683;SDS011;4379;59.744;18.206;2022-10-31T09:15:45;14.37;;;10.27;;
8683;SDS011;4379;59.744;18.206;2022-10-31T09:18:15;19.97;;;10.83;;
8683;SDS011;4379;59.744;18.206;2022-10-31T09:20:44;11.73;;;10.07;;
8683;SDS011;4379;59.744;18.206;2022-10-31T09:23:13;34.30;;;10.63;;
8683;SDS011;4379;59.744;18.206;2022-10-31T09:25:45;12.30;;;9.53;;
8683;SDS011;4379;59.744;18.206;2022-10-31T09:28:18;11.20;;;9.60;;
8683;SDS011;4379;59.744;18.206;2022-10-31T09:30:47;11.27;;;10.07;;
8683;SDS011;4379;59.744;18.206;2022-10-31T09:33:16;16.93;;;10.60;;
8683;SDS011;4379;59.744;18.206;2022-10-31T09:35:44;12.17;;;9.33;;
8683;SDS011;4379;59.744;18.206;2022-10-31T09:38:12;13.97;;;10.17;;
8683;SDS011;4379;59.744;18.206;2022-10-31T09:43:50;19.13;;;10.20;;
8683;SDS011;4379;59.744;18.206;2022-10-31T09:50:06;13.53;;;10.27;;
8683;SDS011;4379;59.744;18.206;2022-10-31T09:52:57;11.90;;;10.00;;
8683;SDS011;4379;59.744;18.206;2022-10-31T09:55:29;12.13;;;10.70;;
8683;SDS011;4379;59.744;18.206;2022-10-31T09:58:03;13.30;;;10.83;;
8683;SDS011;4379;59.744;18.206;2022-10-31T10:00:31;13.53;;;10.97;;
8683;SDS011;4379;59.744;18.206;2022-10-31T10:03:24;11.20;;;10.10;;
8683;SDS011;4379;59.744;18.206;2022-10-31T10:05:59;12.27;;;10.60;;
8683;SDS011;4379;59.744;18.206;2022-10-31T10:08:50;11.77;;;10.10;;
8683;SDS011;4379;59.744;18.206;2022-10-31T10:11:28;11.83;;;10.63;;
8683;SDS011;4379;59.744;18.206;2022-10-31T10:14:15;11.77;;;10.57;;
8683;SDS011;4379;59.744;18.206;2022-10-31T10:19:29;11.87;;;10.70;;
8683;SDS011;4379;59.744;18.206;2022-10-31T10:22:19;10.33;;;9.33;;
8683;SDS011;4379;59.744;18.206;2022-10-31T10:30:27;11.23;;;10.23;;
8683;SDS011;4379;59.744;18.206;2022-10-31T10:33:03;12.30;;;11.07;;
8683;SDS011;4379;59.744;18.206;2022-10-31T10:35:45;14.43;;;11.20;;
8683;SDS011;4379;59.744;18.206;2022-10-31T10:41:07;11.37;;;10.23;;
8683;SDS011;4379;59.744;18.206;2022-10-31T10:43:49;13.47;;;12.00;;
8683;SDS011;4379;59.744;18.206;2022-10-31T10:49:12;13.27;;;11.87;;
8683;SDS011;4379;59.744;18.206;2022-10-31T10:59:54;13.37;;;10.70;;
8683;SDS011;4379;59.744;18.206;2022-10-31T11:02:22;13.13;;;11.70;;
8683;SDS011;4379;59.744;18.206;2022-10-31T11:04:53;13.33;;;11.93;;
8683;SDS011;4379;59.744;18.206;2022-10-31T11:07:21;12.10;;;10.93;;
8683;SDS011;4379;59.744;18.206;2022-10-31T11:09:49;12.60;;;11.37;;
8683;SDS011;4379;59.744;18.206;2022-10-31T11:14:47;13.00;;;11.53;;
8683;SDS011;4379;59.744;18.206;2022-10-31T11:17:19;12.53;;;10.67;;
8683;SDS011;4379;59.744;18.206;2022-10-31T11:22:28;11.87;;;10.00;;
8683;SDS011;4379;59.744;18.206;2022-10-31T11:24:55;11.57;;;10.43;;
8683;SDS011;4379;59.744;18.206;2022-10-31T11:27:23;12.30;;;10.57;;
8683;SDS011;4379;59.744;18.206;2022-10-31T11:29:52;10.30;;;9.33;;
8683;SDS011;4379;59.744;18.206;2022-10-31T11:32:26;11.67;;;9.90;;
8683;SDS011;4379;59.744;18.206;2022-10-31T11:34:56;10.55;;;9.38;;
8683;SDS011;4379;59.744;18.206;2022-10-31T11:37:26;9.75;;;8.88;;
8683;SDS011;4379;59.744;18.206;2022-10-31T11:39:56;9.00;;;8.30;;
8683;SDS011;4379;59.744;18.206;2022-10-31T11:42:29;8.88;;;8.05;;
8683;SDS011;4379;59.744;18.206;2022-10-31T11:47:51;7.65;;;7.03;;
8683;SDS011;4379;59.744;18.206;2022-10-31T11:50:39;8.45;;;7.68;;
8683;SDS011;4379;59.744;18.206;2022-10-31T11:53:15;6.97;;;6.47;;
8683;SDS011;4379;59.744;18.206;2022-10-31T11:55:45;7.28;;;6.57;;
8683;SDS011;4379;59.744;18.206;2022-10-31T11:58:23;7.28;;;6.68;;
8683;SDS011;4379;59.744;18.206;2022-10-31T12:00:53;6.70;;;6.18;;
8683;SDS011;4379;59.744;18.206;2022-10-31T12:05:49;6.38;;;5.90;;
8683;SDS011;4379;59.744;18.206;2022-10-31T12:08:18;6.28;;;5.85;;
8683;SDS011;4379;59.744;18.206;2022-10-31T12:16:19;6.25;;;5.85;;
8683;SDS011;4379;59.744;18.206;2022-10-31T12:24:32;5.82;;;5.32;;
8683;SDS011;4379;59.744;18.206;2022-10-31T12:27:25;5.50;;;5.10;;
8683;SDS011;4379;59.744;18.206;2022-10-31T12:32:53;4.78;;;4.47;;
8683;SDS011;4379;59.744;18.206;2022-10-31T13:01:49;5.10;;;4.78;;
8683;SDS011;4379;59.744;18.206;2022-10-31T13:04:05;5.30;;;5.00;;
8683;SDS011;4379;59.744;18.206;2022-10-31T13:07:03;4.90;;;4.57;;
8683;SDS011;4379;59.744;18.206;2022-10-31T13:09:41;5.72;;;5.32;;
8683;SDS011;4379;59.744;18.206;2022-10-31T13:12:17;5.70;;;5.20;;
8683;SDS011;4379;59.744;18.206;2022-10-31T13:14:49;5.53;;;5.05;;
8683;SDS011;4379;59.744;18.206;2022-10-31T13:17:25;5.05;;;4.55;;
8683;SDS011;4379;59.744;18.206;2022-10-31T13:20:23;5.00;;;4.63;;
8683;SDS011;4379;59.744;18.206;2022-10-31T13:23:08;5.65;;;5.15;;
8683;SDS011;4379;59.744;18.206;2022-10-31T13:26:11;5.43;;;5.03;;
8683;SDS011;4379;59.744;18.206;2022-10-31T13:31:39;4.97;;;4.63;;
8683;SDS011;4379;59.744;18.206;2022-10-31T13:34:16;5.20;;;4.90;;
8683;SDS011;4379;59.744;18.206;2022-10-31T13:36:52;6.80;;;5.07;;
8683;SDS011;4379;59.744;18.206;2022-10-31T13:39:38;5.30;;;4.85;;
8683;SDS011;4379;59.744;18.206;2022-10-31T13:42:19;5.78;;;4.70;;
8683;SDS011;4379;59.744;18.206;2022-10-31T13:45:06;4.80;;;4.50;;
8683;SDS011;4379;59.744;18.206;2022-10-31T13:47:41;4.65;;;4.35;;
8683;SDS011;4379;59.744;18.206;2022-10-31T13:52:49;4.75;;;4.35;;
8683;SDS011;4379;59.744;18.206;2022-10-31T13:55:36;14.73;;;13.40;;
8683;SDS011;4379;59.744;18.206;2022-10-31T13:58:25;5.30;;;4.90;;
8683;SDS011;4379;59.744;18.206;2022-10-31T14:03:44;5.47;;;4.95;;
8683;SDS011;4379;59.744;18.206;2022-10-31T14:06:37;4.60;;;4.30;;
8683;SDS011;4379;59.744;18.206;2022-10-31T14:09:30;5.10;;;4.72;;
8683;SDS011;4379;59.744;18.206;2022-10-31T14:12:03;5.28;;;4.75;;
8683;SDS011;4379;59.744;18.206;2022-10-31T14:14:56;5.70;;;5.25;;
8683;SDS011;4379;59.744;18.206;2022-10-31T14:17:28;5.30;;;5.00;;
8683;SDS011;4379;59.744;18.206;2022-10-31T14:20:00;5.38;;;4.82;;
8683;SDS011;4379;59.744;18.206;2022-10-31T14:22:37;5.55;;;5.15;;
8683;SDS011;4379;59.744;18.206;2022-10-31T14:25:30;5.45;;;4.95;;
8683;SDS011;4379;59.744;18.206;2022-10-31T14:28:00;5.57;;;5.18;;
8683;SDS011;4379;59.744;18.206;2022-10-31T14:30:30;5.75;;;5.20;;
8683;SDS011;4379;59.744;18.206;2022-10-31T14:32:58;8.80;;;5.63;;
8683;SDS011;4379;59.744;18.206;2022-10-31T14:35:37;5.65;;;5.20;;
8683;SDS011;4379;59.744;18.206;2022-10-31T14:47:25;6.00;;;5.40;;
8683;SDS011;4379;59.744;18.206;2022-10-31T14:52:42;6.32;;;5.75;;
8683;SDS011;4379;59.744;18.206;2022-10-31T14:55:13;5.78;;;5.28;;
8683;SDS011;4379;59.744;18.206;2022-10-31T14:57:48;6.25;;;5.57;;
8683;SDS011;4379;59.744;18.206;2022-10-31T15:00:22;6.45;;;5.93;;
8683;SDS011;4379;59.744;18.206;2022-10-31T15:02:57;6.18;;;5.60;;
8683;SDS011;4379;59.744;18.206;2022-10-31T15:05:29;6.53;;;5.93;;
8683;SDS011;4379;59.744;18.206;2022-10-31T15:07:58;5.70;;;5.13;;
8683;SDS011;4379;59.744;18.206;2022-10-31T15:13:16;7.28;;;5.63;;
8683;SDS011;4379;59.744;18.206;2022-10-31T15:15:45;6.43;;;5.90;;
8683;SDS011;4379;59.744;18.206;2022-10-31T15:18:19;6.78;;;6.18;;
8683;SDS011;4379;59.744;18.206;2022-10-31T15:20:50;5.80;;;5.40;;
8683;SDS011;4379;59.744;18.206;2022-10-31T15:23:26;6.37;;;5.83;;
8683;SDS011;4379;59.744;18.206;2022-10-31T15:26:02;6.10;;;5.50;;
8683;SDS011;4379;59.744;18.206;2022-10-31T15:28:31;6.43;;;5.83;;
8683;SDS011;4379;59.744;18.206;2022-10-31T15:30:59;6.43;;;5.60;;
8683;SDS011;4379;59.744;18.206;2022-10-31T15:33:29;6.43;;;5.83;;
8683;SDS011;4379;59.744;18.206;2022-10-31T15:36:05;7.10;;;6.33;;
8683;SDS011;4379;59.744;18.206;2022-10-31T15:38:46;7.37;;;6.27;;
8683;SDS011;4379;59.744;18.206;2022-10-31T15:41:23;17.63;;;7.07;;
8683;SDS011;4379;59.744;18.206;2022-10-31T15:44:18;7.30;;;6.70;;
8683;SDS011;4379;59.744;18.206;2022-10-31T15:46:55;11.47;;;6.70;;
8683;SDS011;4379;59.744;18.206;2022-10-31T15:52:15;51.30;;;9.57;;
8683;SDS011;4379;59.744;18.206;2022-10-31T15:55:05;10.60;;;6.53;;
8683;SDS011;4379;59.744;18.206;2022-10-31T15:57:40;11.93;;;7.20;;
8683;SDS011;4379;59.744;18.206;2022-10-31T16:00:28;25.57;;;7.73;;
8683;SDS011;4379;59.744;18.206;2022-10-31T16:03:05;16.77;;;6.87;;
8683;SDS011;4379;59.744;18.206;2022-10-31T16:05:38;6.77;;;6.17;;
8683;SDS011;4379;59.744;18.206;2022-10-31T16:08:51;7.30;;;6.63;;
8683;SDS011;4379;59.744;18.206;2022-10-31T16:10:57;8.93;;;6.67;;
8683;SDS011;4379;59.744;18.206;2022-10-31T16:13:27;7.43;;;6.70;;
8683;SDS011;4379;59.744;18.206;2022-10-31T16:16:04;8.73;;;7.67;;
8683;SDS011;4379;59.744;18.206;2022-10-31T16:18:59;12.37;;;7.90;;
8683;SDS011;4379;59.744;18.206;2022-10-31T16:21:31;8.80;;;7.17;;
8683;SDS011;4379;59.744;18.206;2022-10-31T16:24:22;22.30;;;7.37;;
8683;SDS011;4379;59.744;18.206;2022-10-31T16:27:03;6.67;;;6.07;;
8683;SDS011;4379;59.744;18.206;2022-10-31T16:29:39;7.57;;;6.33;;
8683;SDS011;4379;59.744;18.206;2022-10-31T16:32:29;8.43;;;7.20;;
8683;SDS011;4379;59.744;18.206;2022-10-31T16:37:39;8.93;;;7.80;;
8683;SDS011;4379;59.744;18.206;2022-10-31T16:40:08;12.53;;;8.37;;
8683;SDS011;4379;59.744;18.206;2022-10-31T16:42:39;9.17;;;7.23;;
8683;SDS011;4379;59.744;18.206;2022-10-31T16:45:07;8.00;;;7.20;;
8683;SDS011;4379;59.744;18.206;2022-10-31T16:47:41;11.93;;;8.70;;
8683;SDS011;4379;59.744;18.206;2022-10-31T16:50:12;10.00;;;8.07;;
8683;SDS011;4379;59.744;18.206;2022-10-31T16:52:46;9.60;;;7.60;;
8683;SDS011;4379;59.744;18.206;2022-10-31T16:55:34;9.63;;;7.97;;
8683;SDS011;4379;59.744;18.206;2022-10-31T16:58:07;10.70;;;9.13;;
8683;SDS011;4379;59.744;18.206;2022-10-31T17:00:40;10.33;;;9.10;;
8683;SDS011;4379;59.744;18.206;2022-10-31T17:03:07;18.47;;;9.90;;
8683;SDS011;4379;59.744;18.206;2022-10-31T17:05:35;13.97;;;9.33;;
8683;SDS011;4379;59.744;18.206;2022-10-31T17:08:04;12.17;;;9.23;;
8683;SDS011;4379;59.744;18.206;2022-10-31T17:10:31;9.80;;;8.60;;
8683;SDS011;4379;59.744;18.206;2022-10-31T17:12:59;9.77;;;7.77;;
8683;SDS011;4379;59.744;18.206;2022-10-31T17:15:31;11.40;;;7.67;;
8683;SDS011;4379;59.744;18.206;2022-10-31T17:18:05;9.73;;;8.00;;
8683;SDS011;4379;59.744;18.206;2022-10-31T17:20:33;8.27;;;7.47;;
8683;SDS011;4379;59.744;18.206;2022-10-31T17:23:00;8.77;;;7.05;;
8683;SDS011;4379;59.744;18.206;2022-10-31T17:25:29;30.70;;;8.33;;
8683;SDS011;4379;59.744;18.206;2022-10-31T17:27:59;7.90;;;6.60;;
8683;SDS011;4379;59.744;18.206;2022-10-31T17:30:26;13.17;;;7.03;;
8683;SDS011;4379;59.744;18.206;2022-10-31T17:32:54;35.17;;;9.17;;
8683;SDS011;4379;59.744;18.206;2022-10-31T17:35:21;9.07;;;6.63;;
8683;SDS011;4379;59.744;18.206;2022-10-31T17:37:50;7.13;;;6.63;;
8683;SDS011;4379;59.744;18.206;2022-10-31T17:40:20;62.25;;;11.68;;
8683;SDS011;4379;59.744;18.206;2022-10-31T17:42:48;7.70;;;6.97;;
8683;SDS011;4379;59.744;18.206;2022-10-31T17:45:20;7.13;;;6.50;;
8683;SDS011;4379;59.744;18.206;2022-10-31T17:47:49;8.13;;;6.27;;
8683;SDS011;4379;59.744;18.206;2022-10-31T17:50:18;17.27;;;6.13;;
8683;SDS011;4379;59.744;18.206;2022-10-31T17:52:48;6.93;;;5.47;;